Strona główna
METAR-TAF:

METAR-TAF

Lotnisko :

Port lotniczy Marka

Amman, Jordania

Szerokość geograficzna: 31-59N, Długość geograficzna: 035-59E, wysokość: 767 m

Aktualna obserwacja pogody

Raport powstał 44 minut temu, godzina 07:00 UTC
Wiatr 2 kt od południowy wschód
Temperatura 5°C
Wilgotność 38%
Ciśnienie 1024 hPa
Widzialność 10 km lub więcej
Brak chmur poniżej 1500 m i brak chmur cumulonimbus

METAR: OJAM 230700Z 13002KT CAVOK 05/M08 Q1024 NOSIG

czas: 09:44 (07:44 UTC)

Prognoza

Raport powstał 2 godziny i 54 minut temu, godzina 04:50 UTC
Prognoza ważna od 23 godzina 06 UTC do 24 godzina 12 UTC
Wiatr 10 kt od wschodnio-południowy wschód
Widzialność: 5000 m
zmętnienie
Prawdopodobieństwo 30%
od 23 godzina 12 UTC do 23 godzina 16 UTC
Wiatr 16 kt od wschodnio-południowy wschód
Widzialność: 4000 m
zawieja pyłowa

TAF: OJAM 230450Z 2306/2412 12010KT 5000 HZ NSC PROB30 2312/2316 12016KT 4000 BLDU

Obserwacja i prognoza pogody dla ponad 4000 lotnisk (raport METAR i TAF).

Dostępne stacje oznaczono żółtymi i czerwonymi punktami na mapie.

Najedź kursorem aby zobaczyć nazwę stacji.

Kliknij aby zobaczyć obserwacje i prognozy pogody.

Aby zmienić mapę: kliknij na zielony przycisk z czarnym krzyżykiem, aby powiększyć; na zielony przycisk z myślnikiem, aby pomniejszyć; na zielone strzałki, aby przejść do map sąsiednich.


METAR-TAF: